Estación Temperatura (°C) Hum
rel
(%)
Precip
(mm)
Viento (km/h) Actual.
Act Mín Máx Act Dir Máx
Vega Baja del Segura
Albatera 16,0 12,4 16,1 64 2,3 2 SO 15 2021-04-10 16:30:00
Almoradí Centro 15,8 12,5 15,8 82 3,3 2 E 13 2021-04-10 16:40:00
Almoradí Los Gomares 15,8 12,0 16,0 83 4,3 3 OSO 13 2021-04-10 16:40:00
Benejúzar 15,7 11,6 15,7 83 4,8 5 SSE 13 2021-04-10 16:40:00
Bigastro La Pedrera 15,1 11,9 15,1 85 2,5 3 ENE 15 2021-04-10 16:40:00
Bigastro Lo Chusco 15,4 12,4 15,6 84 3,8 5 E 13 2021-04-10 16:40:00
Cox El Jasminao 15,9 12,8 15,9 81 3,3 2 SE 10 2021-04-10 16:30:00
Cox Centro 15,8 12,7 15,8 72 2,8 5 ESE 11 2021-04-10 16:30:00
Guardamar del Segura Centro 15,6 12,9 15,9 81 0,8 10 E 32 2021-04-10 16:40:00
Jacarilla Centro 15,8 12,3 15,9 83 0,3 3 SE 13 2021-04-10 16:30:00
Orihuela Centro 15,7 12,2 16,1 83 4,3 5 E 11 2021-04-10 16:40:00
Orihuela La Campaneta 15,9 12,2 16,0 83 2,8 3 E 11 2021-04-10 16:30:00
Orihuela R. de Bonanza 15,7 12,4 16,2 86 2,6 5 SE 8 2021-04-10 16:40:00
Orihuela Lo Capitán 15,2 11,5 15,3 89 2,0 4 ONO 15 2021-04-10 16:40:00
Orihuela Arneva 15,6 12,5 15,7 84 3,3 6 E 15 2021-04-10 16:40:00
Orihuela CC La Zenia 15,8 12,9 16,0 84 8,9 3 NE 47 2021-04-10 16:30:00
Orihuela Dehesa de Pinohermoso 15,3 11,6 15,5 84 2,8 8 E 16 2021-04-10 16:30:00
Rafal 15,8 12,7 15,9 82 3,1 3 ESE 21 2021-04-10 16:40:00
Redován 16,2 12,9 16,2 82 2,8 3 ENE 6 2021-04-10 16:40:00
Rojales Centro 18,0 12,6 18,4 75 7,4 0 ESE 19 2021-04-10 16:40:00
Rojales Ciudad Quesada 15,6 12,4 16,3 83 8,6 2 ESE 35 2021-04-10 16:40:00
San Fulgencio Urb. La Marina 15,3 12,1 15,5 82 8,1 6 ENE 31 2021-04-10 16:30:00
San Fulgencio Centro 15,6 12,2 15,7 81 7,1 11 ESE 34 2021-04-10 16:30:00
San Miguel de Salinas 15,2 12,2 15,5 72 0,0 10 SSE 34 2021-04-10 16:33:00
Pilar de la Horadada Pinar de Campoverde 14,5 11,4 15,3 89 7,6 6 N 42 2021-04-10 16:50:00
Pilar de la Horadada Lo Monte 15,7 12,5 16,3 87 9,1 7 ESE 55 2021-04-10 16:40:00
Zonas Adyacentes
Santomera Centro 16,4 12,8 16,4 81 2,0 0 E 0 2021-04-10 16:40:00
Santomera La Almazara 16,2 11,6 16,2 86 1,2 0 NNE 3 2021-04-10 16:48:00
Murcia Santo Ángel 16,7 12,7 16,7 81 2,3 1 NE 11 2021-04-10 16:40:00
Murcia Cañadas de San Pedro 15,4 11,5 15,9 86 2,8 6 ENE 19 2021-04-10 16:31:00
Molina de Segura La Espada 15,6 11,2 15,6 62 3,0 5 ENE 13 2021-04-10 16:31:00
San Javier 16,2 12,9 16,7 83 10,2 2 OSO 48 2021-04-10 16:40:00
San Pedro del Pinatar 14,9 12,9 15,2 69 9,7 14 E 66 2021-04-10 17:20:00